sensor_id;sensor_type;location;lat;lon;timestamp;P1;durP1;ratioP1;P2;durP2;ratioP2
64682;SDS011;51107;47.652;19.016;2022-07-26T00:01:17;1.02;;;0.88;;
64682;SDS011;51107;47.652;19.016;2022-07-26T00:03:47;1.27;;;1.02;;
64682;SDS011;51107;47.652;19.016;2022-07-26T00:06:16;1.33;;;1.10;;
64682;SDS011;51107;47.652;19.016;2022-07-26T00:08:46;1.55;;;1.02;;
64682;SDS011;51107;47.652;19.016;2022-07-26T00:11:14;1.17;;;1.00;;
64682;SDS011;51107;47.652;19.016;2022-07-26T00:13:44;1.48;;;1.00;;
64682;SDS011;51107;47.652;19.016;2022-07-26T00:16:13;1.08;;;0.90;;
64682;SDS011;51107;47.652;19.016;2022-07-26T00:18:41;1.75;;;1.23;;
64682;SDS011;51107;47.652;19.016;2022-07-26T00:21:09;1.02;;;0.90;;
64682;SDS011;51107;47.652;19.016;2022-07-26T00:23:38;1.40;;;1.20;;
64682;SDS011;51107;47.652;19.016;2022-07-26T00:26:06;1.48;;;1.00;;
64682;SDS011;51107;47.652;19.016;2022-07-26T00:28:35;1.12;;;0.80;;
64682;SDS011;51107;47.652;19.016;2022-07-26T00:31:04;1.20;;;0.98;;
64682;SDS011;51107;47.652;19.016;2022-07-26T00:33:33;1.23;;;1.12;;
64682;SDS011;51107;47.652;19.016;2022-07-26T00:36:01;1.40;;;1.20;;
64682;SDS011;51107;47.652;19.016;2022-07-26T00:38:30;1.95;;;1.25;;
64682;SDS011;51107;47.652;19.016;2022-07-26T00:40:58;1.80;;;1.37;;
64682;SDS011;51107;47.652;19.016;2022-07-26T00:43:26;2.55;;;1.37;;
64682;SDS011;51107;47.652;19.016;2022-07-26T00:45:55;1.67;;;1.00;;
64682;SDS011;51107;47.652;19.016;2022-07-26T00:48:24;1.58;;;1.05;;
64682;SDS011;51107;47.652;19.016;2022-07-26T00:50:53;2.33;;;1.15;;
64682;SDS011;51107;47.652;19.016;2022-07-26T00:53:22;2.67;;;1.20;;
64682;SDS011;51107;47.652;19.016;2022-07-26T00:55:51;3.12;;;1.12;;
64682;SDS011;51107;47.652;19.016;2022-07-26T00:58:20;1.25;;;0.95;;
64682;SDS011;51107;47.652;19.016;2022-07-26T01:00:48;1.48;;;1.02;;
64682;SDS011;51107;47.652;19.016;2022-07-26T01:03:16;1.62;;;1.25;;
64682;SDS011;51107;47.652;19.016;2022-07-26T01:05:45;1.02;;;0.90;;
64682;SDS011;51107;47.652;19.016;2022-07-26T01:08:13;1.00;;;0.90;;
64682;SDS011;51107;47.652;19.016;2022-07-26T01:10:41;1.05;;;1.00;;
64682;SDS011;51107;47.652;19.016;2022-07-26T01:13:10;1.77;;;1.35;;
64682;SDS011;51107;47.652;19.016;2022-07-26T01:15:40;1.80;;;1.20;;
64682;SDS011;51107;47.652;19.016;2022-07-26T01:18:08;9.85;;;1.48;;
64682;SDS011;51107;47.652;19.016;2022-07-26T01:20:36;1.65;;;1.23;;
64682;SDS011;51107;47.652;19.016;2022-07-26T01:23:06;1.65;;;1.10;;
64682;SDS011;51107;47.652;19.016;2022-07-26T01:25:35;1.90;;;1.30;;
64682;SDS011;51107;47.652;19.016;2022-07-26T01:28:10;1.30;;;1.02;;
64682;SDS011;51107;47.652;19.016;2022-07-26T01:30:47;1.77;;;1.10;;
64682;SDS011;51107;47.652;19.016;2022-07-26T01:33:16;2.22;;;1.42;;
64682;SDS011;51107;47.652;19.016;2022-07-26T01:35:45;1.52;;;1.25;;
64682;SDS011;51107;47.652;19.016;2022-07-26T01:38:13;1.02;;;0.93;;
64682;SDS011;51107;47.652;19.016;2022-07-26T01:40:41;0.75;;;0.75;;
64682;SDS011;51107;47.652;19.016;2022-07-26T01:43:09;1.77;;;1.35;;
64682;SDS011;51107;47.652;19.016;2022-07-26T01:45:38;1.12;;;1.00;;
64682;SDS011;51107;47.652;19.016;2022-07-26T01:48:09;1.27;;;1.08;;
64682;SDS011;51107;47.652;19.016;2022-07-26T01:50:38;1.27;;;1.08;;
64682;SDS011;51107;47.652;19.016;2022-07-26T01:53:06;1.12;;;1.02;;
64682;SDS011;51107;47.652;19.016;2022-07-26T01:55:35;2.15;;;1.30;;
64682;SDS011;51107;47.652;19.016;2022-07-26T01:58:04;1.85;;;1.20;;
64682;SDS011;51107;47.652;19.016;2022-07-26T02:00:33;4.68;;;1.08;;
64682;SDS011;51107;47.652;19.016;2022-07-26T02:03:01;1.20;;;1.00;;
64682;SDS011;51107;47.652;19.016;2022-07-26T02:05:30;0.98;;;0.88;;
64682;SDS011;51107;47.652;19.016;2022-07-26T02:07:58;2.45;;;1.20;;
64682;SDS011;51107;47.652;19.016;2022-07-26T02:10:27;1.45;;;1.00;;
64682;SDS011;51107;47.652;19.016;2022-07-26T02:13:14;1.10;;;0.90;;
64682;SDS011;51107;47.652;19.016;2022-07-26T02:15:43;1.90;;;1.12;;
64682;SDS011;51107;47.652;19.016;2022-07-26T02:18:11;1.00;;;0.73;;
64682;SDS011;51107;47.652;19.016;2022-07-26T02:20:39;1.10;;;1.00;;
64682;SDS011;51107;47.652;19.016;2022-07-26T02:23:08;2.35;;;1.20;;
64682;SDS011;51107;47.652;19.016;2022-07-26T02:25:36;1.73;;;1.40;;
64682;SDS011;51107;47.652;19.016;2022-07-26T02:28:04;1.40;;;0.98;;
64682;SDS011;51107;47.652;19.016;2022-07-26T02:30:33;1.23;;;1.00;;
64682;SDS011;51107;47.652;19.016;2022-07-26T02:33:01;1.73;;;1.23;;
64682;SDS011;51107;47.652;19.016;2022-07-26T02:35:30;2.30;;;1.30;;
64682;SDS011;51107;47.652;19.016;2022-07-26T02:38:02;1.50;;;1.02;;
64682;SDS011;51107;47.652;19.016;2022-07-26T02:40:37;1.50;;;1.20;;
64682;SDS011;51107;47.652;19.016;2022-07-26T02:43:07;1.25;;;1.00;;
64682;SDS011;51107;47.652;19.016;2022-07-26T02:45:35;1.17;;;1.02;;
64682;SDS011;51107;47.652;19.016;2022-07-26T02:48:04;1.73;;;1.20;;
64682;SDS011;51107;47.652;19.016;2022-07-26T02:50:34;1.58;;;1.48;;
64682;SDS011;51107;47.652;19.016;2022-07-26T02:53:02;1.77;;;1.30;;
64682;SDS011;51107;47.652;19.016;2022-07-26T02:55:30;1.20;;;1.00;;
64682;SDS011;51107;47.652;19.016;2022-07-26T02:57:59;1.10;;;1.00;;
64682;SDS011;51107;47.652;19.016;2022-07-26T03:00:27;2.10;;;1.40;;
64682;SDS011;51107;47.652;19.016;2022-07-26T03:02:56;1.77;;;1.08;;
64682;SDS011;51107;47.652;19.016;2022-07-26T03:05:24;1.37;;;1.08;;
64682;SDS011;51107;47.652;19.016;2022-07-26T03:07:52;1.45;;;1.10;;
64682;SDS011;51107;47.652;19.016;2022-07-26T03:10:20;2.22;;;1.20;;
64682;SDS011;51107;47.652;19.016;2022-07-26T03:12:49;2.83;;;1.33;;
64682;SDS011;51107;47.652;19.016;2022-07-26T03:15:17;3.20;;;1.40;;
64682;SDS011;51107;47.652;19.016;2022-07-26T03:17:45;3.67;;;1.85;;
64682;SDS011;51107;47.652;19.016;2022-07-26T03:20:14;1.50;;;1.17;;
64682;SDS011;51107;47.652;19.016;2022-07-26T03:22:42;2.55;;;1.48;;
64682;SDS011;51107;47.652;19.016;2022-07-26T03:25:11;1.50;;;1.25;;
64682;SDS011;51107;47.652;19.016;2022-07-26T03:27:39;2.53;;;1.50;;
64682;SDS011;51107;47.652;19.016;2022-07-26T03:30:08;2.35;;;1.10;;
64682;SDS011;51107;47.652;19.016;2022-07-26T03:32:36;1.50;;;1.25;;
64682;SDS011;51107;47.652;19.016;2022-07-26T03:35:05;2.12;;;1.37;;
64682;SDS011;51107;47.652;19.016;2022-07-26T03:37:34;1.23;;;0.95;;
64682;SDS011;51107;47.652;19.016;2022-07-26T03:40:14;2.35;;;1.10;;
64682;SDS011;51107;47.652;19.016;2022-07-26T03:42:43;2.28;;;1.23;;
64682;SDS011;51107;47.652;19.016;2022-07-26T03:45:13;1.48;;;1.00;;
64682;SDS011;51107;47.652;19.016;2022-07-26T03:47:42;0.80;;;0.77;;
64682;SDS011;51107;47.652;19.016;2022-07-26T03:50:10;1.75;;;1.33;;
64682;SDS011;51107;47.652;19.016;2022-07-26T03:52:40;1.40;;;1.20;;
64682;SDS011;51107;47.652;19.016;2022-07-26T03:55:09;1.80;;;1.30;;
64682;SDS011;51107;47.652;19.016;2022-07-26T03:57:56;1.48;;;1.17;;
64682;SDS011;51107;47.652;19.016;2022-07-26T04:00:24;1.65;;;1.20;;
64682;SDS011;51107;47.652;19.016;2022-07-26T04:02:52;1.65;;;1.42;;
64682;SDS011;51107;47.652;19.016;2022-07-26T04:05:21;1.25;;;1.15;;
64682;SDS011;51107;47.652;19.016;2022-07-26T04:07:50;2.10;;;1.30;;
64682;SDS011;51107;47.652;19.016;2022-07-26T04:10:21;2.70;;;1.45;;
64682;SDS011;51107;47.652;19.016;2022-07-26T04:12:49;6.57;;;2.65;;
64682;SDS011;51107;47.652;19.016;2022-07-26T04:15:18;2.15;;;1.33;;
64682;SDS011;51107;47.652;19.016;2022-07-26T04:17:48;3.37;;;1.83;;
64682;SDS011;51107;47.652;19.016;2022-07-26T04:20:16;6.18;;;1.77;;
64682;SDS011;51107;47.652;19.016;2022-07-26T04:22:45;4.00;;;2.08;;
64682;SDS011;51107;47.652;19.016;2022-07-26T04:25:13;2.87;;;1.70;;
64682;SDS011;51107;47.652;19.016;2022-07-26T04:27:42;4.10;;;1.70;;
64682;SDS011;51107;47.652;19.016;2022-07-26T04:30:10;2.28;;;1.42;;
64682;SDS011;51107;47.652;19.016;2022-07-26T04:32:43;4.45;;;2.03;;
64682;SDS011;51107;47.652;19.016;2022-07-26T04:35:13;2.17;;;1.62;;
64682;SDS011;51107;47.652;19.016;2022-07-26T04:37:43;2.15;;;1.50;;
64682;SDS011;51107;47.652;19.016;2022-07-26T04:40:18;2.05;;;1.30;;
64682;SDS011;51107;47.652;19.016;2022-07-26T04:42:50;1.37;;;1.27;;
64682;SDS011;51107;47.652;19.016;2022-07-26T04:45:19;1.20;;;1.10;;
64682;SDS011;51107;47.652;19.016;2022-07-26T04:47:48;2.70;;;1.70;;
64682;SDS011;51107;47.652;19.016;2022-07-26T04:50:18;35.50;;;11.10;;
64682;SDS011;51107;47.652;19.016;2022-07-26T04:52:50;14.23;;;6.35;;
64682;SDS011;51107;47.652;19.016;2022-07-26T04:55:19;3.50;;;1.80;;
64682;SDS011;51107;47.652;19.016;2022-07-26T04:57:48;2.00;;;1.50;;
64682;SDS011;51107;47.652;19.016;2022-07-26T05:00:18;2.72;;;1.70;;
64682;SDS011;51107;47.652;19.016;2022-07-26T05:02:52;1.80;;;1.10;;
64682;SDS011;51107;47.652;19.016;2022-07-26T05:05:22;2.05;;;1.42;;
64682;SDS011;51107;47.652;19.016;2022-07-26T05:07:54;1.42;;;1.25;;
64682;SDS011;51107;47.652;19.016;2022-07-26T05:10:34;1.65;;;1.27;;
64682;SDS011;51107;47.652;19.016;2022-07-26T05:13:04;2.00;;;1.33;;
64682;SDS011;51107;47.652;19.016;2022-07-26T05:15:34;7.25;;;1.20;;
64682;SDS011;51107;47.652;19.016;2022-07-26T05:18:07;1.48;;;1.23;;
64682;SDS011;51107;47.652;19.016;2022-07-26T05:20:40;3.33;;;1.30;;
64682;SDS011;51107;47.652;19.016;2022-07-26T05:23:08;1.62;;;1.15;;
64682;SDS011;51107;47.652;19.016;2022-07-26T05:25:37;2.65;;;1.33;;
64682;SDS011;51107;47.652;19.016;2022-07-26T05:28:05;2.10;;;1.37;;
64682;SDS011;51107;47.652;19.016;2022-07-26T05:30:34;1.55;;;1.30;;
64682;SDS011;51107;47.652;19.016;2022-07-26T05:33:03;3.95;;;1.25;;
64682;SDS011;51107;47.652;19.016;2022-07-26T05:35:31;2.90;;;1.37;;
64682;SDS011;51107;47.652;19.016;2022-07-26T05:38:00;2.03;;;1.55;;
64682;SDS011;51107;47.652;19.016;2022-07-26T05:40:28;2.97;;;1.40;;
64682;SDS011;51107;47.652;19.016;2022-07-26T05:42:56;1.75;;;1.27;;
64682;SDS011;51107;47.652;19.016;2022-07-26T05:45:25;2.37;;;1.83;;
64682;SDS011;51107;47.652;19.016;2022-07-26T05:47:53;2.50;;;2.00;;
64682;SDS011;51107;47.652;19.016;2022-07-26T05:50:22;2.55;;;1.80;;
64682;SDS011;51107;47.652;19.016;2022-07-26T05:52:50;4.12;;;1.98;;
64682;SDS011;51107;47.652;19.016;2022-07-26T05:55:18;2.08;;;1.75;;
64682;SDS011;51107;47.652;19.016;2022-07-26T05:57:47;3.55;;;2.10;;
64682;SDS011;51107;47.652;19.016;2022-07-26T06:00:17;3.17;;;2.28;;
64682;SDS011;51107;47.652;19.016;2022-07-26T06:02:46;3.45;;;2.20;;
64682;SDS011;51107;47.652;19.016;2022-07-26T06:05:14;3.15;;;2.22;;
64682;SDS011;51107;47.652;19.016;2022-07-26T06:07:42;3.78;;;1.92;;
64682;SDS011;51107;47.652;19.016;2022-07-26T06:10:11;6.10;;;2.20;;
64682;SDS011;51107;47.652;19.016;2022-07-26T06:12:39;4.90;;;2.42;;
64682;SDS011;51107;47.652;19.016;2022-07-26T06:15:07;4.43;;;2.22;;
64682;SDS011;51107;47.652;19.016;2022-07-26T06:17:42;3.17;;;2.00;;
64682;SDS011;51107;47.652;19.016;2022-07-26T06:20:11;3.75;;;2.03;;
64682;SDS011;51107;47.652;19.016;2022-07-26T06:22:39;4.30;;;2.95;;
64682;SDS011;51107;47.652;19.016;2022-07-26T06:25:08;7.62;;;2.62;;
64682;SDS011;51107;47.652;19.016;2022-07-26T06:27:36;3.90;;;2.45;;
64682;SDS011;51107;47.652;19.016;2022-07-26T06:30:05;3.50;;;2.42;;
64682;SDS011;51107;47.652;19.016;2022-07-26T06:32:35;2.95;;;2.12;;
64682;SDS011;51107;47.652;19.016;2022-07-26T06:35:04;3.25;;;1.90;;
64682;SDS011;51107;47.652;19.016;2022-07-26T06:37:34;3.33;;;1.98;;
64682;SDS011;51107;47.652;19.016;2022-07-26T06:40:05;2.75;;;1.87;;
64682;SDS011;51107;47.652;19.016;2022-07-26T06:42:35;3.55;;;1.90;;
64682;SDS011;51107;47.652;19.016;2022-07-26T06:45:03;2.25;;;1.60;;
64682;SDS011;51107;47.652;19.016;2022-07-26T06:47:33;2.90;;;2.05;;
64682;SDS011;51107;47.652;19.016;2022-07-26T06:50:02;2.35;;;1.87;;
64682;SDS011;51107;47.652;19.016;2022-07-26T06:52:30;3.72;;;2.20;;
64682;SDS011;51107;47.652;19.016;2022-07-26T06:55:00;2.85;;;1.80;;
64682;SDS011;51107;47.652;19.016;2022-07-26T06:57:29;5.35;;;2.35;;
64682;SDS011;51107;47.652;19.016;2022-07-26T06:59:57;4.47;;;2.40;;
64682;SDS011;51107;47.652;19.016;2022-07-26T07:02:26;2.65;;;2.20;;
64682;SDS011;51107;47.652;19.016;2022-07-26T07:04:54;2.83;;;2.10;;
64682;SDS011;51107;47.652;19.016;2022-07-26T07:07:22;3.15;;;2.00;;
64682;SDS011;51107;47.652;19.016;2022-07-26T07:09:54;2.55;;;1.73;;
64682;SDS011;51107;47.652;19.016;2022-07-26T07:12:23;5.25;;;2.20;;
64682;SDS011;51107;47.652;19.016;2022-07-26T07:14:51;4.35;;;1.80;;
64682;SDS011;51107;47.652;19.016;2022-07-26T07:17:19;2.70;;;2.10;;
64682;SDS011;51107;47.652;19.016;2022-07-26T07:19:48;4.37;;;2.10;;
64682;SDS011;51107;47.652;19.016;2022-07-26T07:22:16;3.62;;;1.52;;
64682;SDS011;51107;47.652;19.016;2022-07-26T07:24:44;5.03;;;1.70;;
64682;SDS011;51107;47.652;19.016;2022-07-26T07:27:15;1.98;;;1.55;;
64682;SDS011;51107;47.652;19.016;2022-07-26T07:29:43;3.45;;;2.17;;
64682;SDS011;51107;47.652;19.016;2022-07-26T07:32:11;3.65;;;2.30;;
64682;SDS011;51107;47.652;19.016;2022-07-26T07:34:47;4.72;;;2.70;;
64682;SDS011;51107;47.652;19.016;2022-07-26T07:37:16;3.03;;;2.28;;
64682;SDS011;51107;47.652;19.016;2022-07-26T07:39:47;2.47;;;2.08;;
64682;SDS011;51107;47.652;19.016;2022-07-26T07:42:18;2.55;;;1.80;;
64682;SDS011;51107;47.652;19.016;2022-07-26T07:44:46;2.65;;;1.87;;
64682;SDS011;51107;47.652;19.016;2022-07-26T07:47:16;2.80;;;2.08;;
64682;SDS011;51107;47.652;19.016;2022-07-26T07:49:45;3.17;;;2.03;;
64682;SDS011;51107;47.652;19.016;2022-07-26T07:52:13;2.83;;;1.98;;
64682;SDS011;51107;47.652;19.016;2022-07-26T07:54:41;2.25;;;1.95;;
64682;SDS011;51107;47.652;19.016;2022-07-26T07:57:10;2.78;;;1.92;;
64682;SDS011;51107;47.652;19.016;2022-07-26T07:59:40;2.72;;;2.08;;
64682;SDS011;51107;47.652;19.016;2022-07-26T08:02:09;2.30;;;1.90;;
64682;SDS011;51107;47.652;19.016;2022-07-26T08:04:39;3.25;;;1.60;;
64682;SDS011;51107;47.652;19.016;2022-07-26T08:07:08;2.42;;;1.70;;
64682;SDS011;51107;47.652;19.016;2022-07-26T08:09:36;2.67;;;1.95;;
64682;SDS011;51107;47.652;19.016;2022-07-26T08:12:10;2.30;;;2.00;;
64682;SDS011;51107;47.652;19.016;2022-07-26T08:14:38;2.53;;;1.83;;
64682;SDS011;51107;47.652;19.016;2022-07-26T08:17:08;2.20;;;1.58;;
64682;SDS011;51107;47.652;19.016;2022-07-26T08:19:36;6.07;;;1.85;;
64682;SDS011;51107;47.652;19.016;2022-07-26T08:22:09;3.55;;;1.75;;
64682;SDS011;51107;47.652;19.016;2022-07-26T08:24:38;2.92;;;1.75;;
64682;SDS011;51107;47.652;19.016;2022-07-26T08:27:07;2.67;;;1.92;;
64682;SDS011;51107;47.652;19.016;2022-07-26T08:29:35;1.90;;;1.55;;
64682;SDS011;51107;47.652;19.016;2022-07-26T08:32:04;4.07;;;1.98;;
64682;SDS011;51107;47.652;19.016;2022-07-26T08:34:32;3.00;;;2.05;;
64682;SDS011;51107;47.652;19.016;2022-07-26T08:37:01;4.68;;;1.77;;
64682;SDS011;51107;47.652;19.016;2022-07-26T08:39:45;2.83;;;2.00;;
64682;SDS011;51107;47.652;19.016;2022-07-26T08:42:15;3.10;;;2.10;;
64682;SDS011;51107;47.652;19.016;2022-07-26T08:44:50;2.60;;;1.85;;
64682;SDS011;51107;47.652;19.016;2022-07-26T08:47:21;3.03;;;1.95;;
64682;SDS011;51107;47.652;19.016;2022-07-26T08:50:07;2.78;;;2.08;;
64682;SDS011;51107;47.652;19.016;2022-07-26T08:52:37;2.53;;;1.90;;
64682;SDS011;51107;47.652;19.016;2022-07-26T08:55:13;2.20;;;1.48;;
64682;SDS011;51107;47.652;19.016;2022-07-26T08:57:43;2.28;;;1.60;;
64682;SDS011;51107;47.652;19.016;2022-07-26T09:00:13;2.80;;;1.73;;
64682;SDS011;51107;47.652;19.016;2022-07-26T09:02:49;2.50;;;1.62;;
64682;SDS011;51107;47.652;19.016;2022-07-26T09:05:19;1.87;;;1.60;;
64682;SDS011;51107;47.652;19.016;2022-07-26T09:07:54;2.70;;;1.87;;
64682;SDS011;51107;47.652;19.016;2022-07-26T09:10:24;2.03;;;1.83;;
64682;SDS011;51107;47.652;19.016;2022-07-26T09:12:53;2.80;;;1.85;;
64682;SDS011;51107;47.652;19.016;2022-07-26T09:15:24;3.33;;;1.70;;
64682;SDS011;51107;47.652;19.016;2022-07-26T09:17:54;2.15;;;1.77;;
64682;SDS011;51107;47.652;19.016;2022-07-26T09:20:25;2.10;;;1.90;;
64682;SDS011;51107;47.652;19.016;2022-07-26T09:25:32;4.62;;;1.95;;
64682;SDS011;51107;47.652;19.016;2022-07-26T09:28:03;3.40;;;2.33;;
64682;SDS011;51107;47.652;19.016;2022-07-26T09:33:42;2.25;;;1.85;;
64682;SDS011;51107;47.652;19.016;2022-07-26T09:36:14;2.85;;;2.03;;
64682;SDS011;51107;47.652;19.016;2022-07-26T09:38:44;2.30;;;1.90;;
64682;SDS011;51107;47.652;19.016;2022-07-26T09:41:26;6.03;;;1.92;;
64682;SDS011;51107;47.652;19.016;2022-07-26T09:44:03;1.77;;;1.42;;
64682;SDS011;51107;47.652;19.016;2022-07-26T09:46:33;2.20;;;1.48;;
64682;SDS011;51107;47.652;19.016;2022-07-26T09:49:16;1.77;;;1.58;;
64682;SDS011;51107;47.652;19.016;2022-07-26T09:51:46;2.12;;;1.67;;
64682;SDS011;51107;47.652;19.016;2022-07-26T09:56:57;2.10;;;1.58;;
64682;SDS011;51107;47.652;19.016;2022-07-26T09:59:27;4.32;;;1.50;;
64682;SDS011;51107;47.652;19.016;2022-07-26T10:01:57;4.50;;;1.60;;
64682;SDS011;51107;47.652;19.016;2022-07-26T10:04:26;8.60;;;2.30;;
64682;SDS011;51107;47.652;19.016;2022-07-26T10:06:54;3.10;;;1.80;;
64682;SDS011;51107;47.652;19.016;2022-07-26T10:09:24;2.47;;;1.70;;
64682;SDS011;51107;47.652;19.016;2022-07-26T10:12:02;3.78;;;1.83;;
64682;SDS011;51107;47.652;19.016;2022-07-26T10:14:46;4.90;;;2.08;;
64682;SDS011;51107;47.652;19.016;2022-07-26T10:19:59;3.10;;;1.87;;
64682;SDS011;51107;47.652;19.016;2022-07-26T10:22:31;3.28;;;2.20;;
64682;SDS011;51107;47.652;19.016;2022-07-26T10:30:24;2.72;;;1.90;;
64682;SDS011;51107;47.652;19.016;2022-07-26T10:33:05;3.83;;;1.95;;
64682;SDS011;51107;47.652;19.016;2022-07-26T10:35:37;3.28;;;2.12;;
64682;SDS011;51107;47.652;19.016;2022-07-26T10:38:09;2.78;;;1.77;;
64682;SDS011;51107;47.652;19.016;2022-07-26T10:40:55;2.70;;;1.83;;
64682;SDS011;51107;47.652;19.016;2022-07-26T10:43:25;2.22;;;1.83;;
64682;SDS011;51107;47.652;19.016;2022-07-26T10:51:27;3.08;;;1.87;;
64682;SDS011;51107;47.652;19.016;2022-07-26T10:54:01;3.42;;;2.42;;
64682;SDS011;51107;47.652;19.016;2022-07-26T10:56:34;3.83;;;2.05;;
64682;SDS011;51107;47.652;19.016;2022-07-26T10:59:04;3.33;;;2.15;;
64682;SDS011;51107;47.652;19.016;2022-07-26T11:01:37;4.68;;;2.25;;
64682;SDS011;51107;47.652;19.016;2022-07-26T11:04:17;3.75;;;2.20;;
64682;SDS011;51107;47.652;19.016;2022-07-26T11:06:46;2.58;;;1.92;;
64682;SDS011;51107;47.652;19.016;2022-07-26T11:09:16;5.95;;;2.60;;
64682;SDS011;51107;47.652;19.016;2022-07-26T11:11:48;2.80;;;1.90;;
64682;SDS011;51107;47.652;19.016;2022-07-26T11:14:18;2.45;;;1.77;;
64682;SDS011;51107;47.652;19.016;2022-07-26T11:16:47;4.72;;;2.28;;
64682;SDS011;51107;47.652;19.016;2022-07-26T11:19:18;3.12;;;2.28;;
64682;SDS011;51107;47.652;19.016;2022-07-26T11:21:54;3.90;;;2.12;;
64682;SDS011;51107;47.652;19.016;2022-07-26T11:24:26;5.68;;;2.42;;
64682;SDS011;51107;47.652;19.016;2022-07-26T11:27:01;4.40;;;2.28;;
64682;SDS011;51107;47.652;19.016;2022-07-26T11:29:31;2.87;;;1.70;;
64682;SDS011;51107;47.652;19.016;2022-07-26T11:32:20;3.17;;;2.10;;
64682;SDS011;51107;47.652;19.016;2022-07-26T11:34:58;2.85;;;2.00;;
64682;SDS011;51107;47.652;19.016;2022-07-26T11:37:28;5.30;;;2.72;;
64682;SDS011;51107;47.652;19.016;2022-07-26T11:39:57;2.30;;;1.80;;
64682;SDS011;51107;47.652;19.016;2022-07-26T11:42:25;5.80;;;2.28;;
64682;SDS011;51107;47.652;19.016;2022-07-26T11:44:54;6.05;;;2.60;;
64682;SDS011;51107;47.652;19.016;2022-07-26T11:47:22;4.82;;;1.90;;
64682;SDS011;51107;47.652;19.016;2022-07-26T11:49:53;4.37;;;2.12;;
64682;SDS011;51107;47.652;19.016;2022-07-26T11:52:42;3.20;;;1.73;;
64682;SDS011;51107;47.652;19.016;2022-07-26T11:55:10;3.58;;;2.03;;
64682;SDS011;51107;47.652;19.016;2022-07-26T11:57:39;2.87;;;1.87;;
64682;SDS011;51107;47.652;19.016;2022-07-26T12:00:07;2.58;;;2.12;;
64682;SDS011;51107;47.652;19.016;2022-07-26T12:02:37;3.10;;;2.15;;
64682;SDS011;51107;47.652;19.016;2022-07-26T12:05:14;3.20;;;1.90;;
64682;SDS011;51107;47.652;19.016;2022-07-26T12:07:55;2.20;;;1.60;;
64682;SDS011;51107;47.652;19.016;2022-07-26T12:10:29;3.75;;;2.05;;
64682;SDS011;51107;47.652;19.016;2022-07-26T12:13:05;4.75;;;1.73;;
64682;SDS011;51107;47.652;19.016;2022-07-26T12:15:48;4.00;;;1.73;;
64682;SDS011;51107;47.652;19.016;2022-07-26T12:18:21;3.20;;;2.15;;
64682;SDS011;51107;47.652;19.016;2022-07-26T12:20:55;2.47;;;1.70;;
64682;SDS011;51107;47.652;19.016;2022-07-26T12:23:44;2.75;;;1.42;;
64682;SDS011;51107;47.652;19.016;2022-07-26T12:28:55;4.18;;;2.05;;
64682;SDS011;51107;47.652;19.016;2022-07-26T12:31:28;2.40;;;1.70;;
64682;SDS011;51107;47.652;19.016;2022-07-26T12:33:58;2.42;;;1.33;;
64682;SDS011;51107;47.652;19.016;2022-07-26T12:36:27;3.15;;;2.05;;
64682;SDS011;51107;47.652;19.016;2022-07-26T12:38:57;2.00;;;1.62;;
64682;SDS011;51107;47.652;19.016;2022-07-26T12:44:06;2.10;;;1.55;;
64682;SDS011;51107;47.652;19.016;2022-07-26T12:46:39;3.40;;;2.05;;
64682;SDS011;51107;47.652;19.016;2022-07-26T12:49:07;1.92;;;1.62;;
64682;SDS011;51107;47.652;19.016;2022-07-26T12:51:36;2.70;;;1.75;;
64682;SDS011;51107;47.652;19.016;2022-07-26T12:54:04;2.62;;;1.77;;
64682;SDS011;51107;47.652;19.016;2022-07-26T12:56:33;2.22;;;1.58;;
64682;SDS011;51107;47.652;19.016;2022-07-26T12:59:02;3.33;;;1.92;;
64682;SDS011;51107;47.652;19.016;2022-07-26T13:01:31;2.55;;;1.80;;
64682;SDS011;51107;47.652;19.016;2022-07-26T13:03:59;2.58;;;1.77;;
64682;SDS011;51107;47.652;19.016;2022-07-26T13:06:28;2.33;;;1.80;;
64682;SDS011;51107;47.652;19.016;2022-07-26T13:08:57;1.77;;;1.37;;
64682;SDS011;51107;47.652;19.016;2022-07-26T13:11:25;2.53;;;1.83;;
64682;SDS011;51107;47.652;19.016;2022-07-26T13:13:54;2.67;;;2.05;;
64682;SDS011;51107;47.652;19.016;2022-07-26T13:16:22;3.62;;;2.58;;
64682;SDS011;51107;47.652;19.016;2022-07-26T13:18:51;3.50;;;2.25;;
64682;SDS011;51107;47.652;19.016;2022-07-26T13:21:19;5.32;;;2.42;;
64682;SDS011;51107;47.652;19.016;2022-07-26T13:23:48;3.45;;;2.40;;
64682;SDS011;51107;47.652;19.016;2022-07-26T13:26:16;3.87;;;2.37;;
64682;SDS011;51107;47.652;19.016;2022-07-26T13:28:44;3.67;;;2.30;;
64682;SDS011;51107;47.652;19.016;2022-07-26T13:31:16;3.42;;;2.67;;
64682;SDS011;51107;47.652;19.016;2022-07-26T13:33:45;4.05;;;2.28;;
64682;SDS011;51107;47.652;19.016;2022-07-26T13:36:13;4.00;;;2.60;;
64682;SDS011;51107;47.652;19.016;2022-07-26T13:38:42;3.45;;;2.25;;
64682;SDS011;51107;47.652;19.016;2022-07-26T13:41:10;3.40;;;2.40;;
64682;SDS011;51107;47.652;19.016;2022-07-26T13:43:38;2.65;;;2.30;;
64682;SDS011;51107;47.652;19.016;2022-07-26T13:46:07;2.65;;;2.08;;
64682;SDS011;51107;47.652;19.016;2022-07-26T13:48:35;3.12;;;2.30;;
64682;SDS011;51107;47.652;19.016;2022-07-26T13:51:04;2.50;;;1.92;;
64682;SDS011;51107;47.652;19.016;2022-07-26T13:53:32;3.28;;;2.30;;
64682;SDS011;51107;47.652;19.016;2022-07-26T13:56:18;1.92;;;1.73;;
64682;SDS011;51107;47.652;19.016;2022-07-26T13:58:47;3.25;;;2.20;;
64682;SDS011;51107;47.652;19.016;2022-07-26T14:01:15;8.55;;;2.40;;
64682;SDS011;51107;47.652;19.016;2022-07-26T14:03:44;7.22;;;3.03;;
64682;SDS011;51107;47.652;19.016;2022-07-26T14:06:12;3.22;;;2.47;;
64682;SDS011;51107;47.652;19.016;2022-07-26T14:08:40;3.33;;;2.20;;
64682;SDS011;51107;47.652;19.016;2022-07-26T14:11:12;2.95;;;2.42;;
64682;SDS011;51107;47.652;19.016;2022-07-26T14:13:40;3.40;;;2.45;;
64682;SDS011;51107;47.652;19.016;2022-07-26T14:16:08;5.05;;;2.92;;
64682;SDS011;51107;47.652;19.016;2022-07-26T14:18:37;4.28;;;2.28;;
64682;SDS011;51107;47.652;19.016;2022-07-26T14:21:05;4.72;;;3.17;;
64682;SDS011;51107;47.652;19.016;2022-07-26T14:23:37;3.10;;;2.40;;
64682;SDS011;51107;47.652;19.016;2022-07-26T14:26:06;3.33;;;2.62;;
64682;SDS011;51107;47.652;19.016;2022-07-26T14:28:34;3.17;;;2.87;;
64682;SDS011;51107;47.652;19.016;2022-07-26T14:31:03;8.27;;;3.28;;
64682;SDS011;51107;47.652;19.016;2022-07-26T14:33:31;3.42;;;2.60;;
64682;SDS011;51107;47.652;19.016;2022-07-26T14:36:01;4.00;;;2.83;;
64682;SDS011;51107;47.652;19.016;2022-07-26T14:38:29;3.80;;;2.58;;
64682;SDS011;51107;47.652;19.016;2022-07-26T14:40:58;3.50;;;2.67;;
64682;SDS011;51107;47.652;19.016;2022-07-26T14:43:27;5.32;;;3.22;;
64682;SDS011;51107;47.652;19.016;2022-07-26T14:45:56;6.32;;;3.20;;
64682;SDS011;51107;47.652;19.016;2022-07-26T14:48:24;4.80;;;3.30;;
64682;SDS011;51107;47.652;19.016;2022-07-26T14:51:12;8.27;;;3.72;;
64682;SDS011;51107;47.652;19.016;2022-07-26T14:53:41;4.70;;;3.00;;
64682;SDS011;51107;47.652;19.016;2022-07-26T14:56:09;7.57;;;3.33;;
64682;SDS011;51107;47.652;19.016;2022-07-26T14:58:38;4.47;;;3.30;;
64682;SDS011;51107;47.652;19.016;2022-07-26T15:01:06;4.50;;;3.25;;
64682;SDS011;51107;47.652;19.016;2022-07-26T15:03:35;3.42;;;2.87;;
64682;SDS011;51107;47.652;19.016;2022-07-26T15:06:03;4.93;;;2.97;;
64682;SDS011;51107;47.652;19.016;2022-07-26T15:08:31;5.87;;;3.65;;
64682;SDS011;51107;47.652;19.016;2022-07-26T15:11:00;7.47;;;3.12;;
64682;SDS011;51107;47.652;19.016;2022-07-26T15:13:28;4.72;;;2.97;;
64682;SDS011;51107;47.652;19.016;2022-07-26T15:15:56;3.95;;;2.87;;
64682;SDS011;51107;47.652;19.016;2022-07-26T15:18:25;4.10;;;3.28;;